This is the latest recevied weather packets stored in our database for station/object W2BP-13. If no packets are shown the sender has not sent any weather packets the latest 10 day(s).
| Time | Temp. | Humidity | Pressure | Rain* | Wind** | Luminosity | Snow |
|---|---|---|---|---|---|---|---|
| 1778109033 | 28.33° C | 37% | 1015.9 hPa | 0 mm | - | - | - |
| 1778108132 | 27.78° C | 36% | 1015.9 hPa | 0 mm | - | - | - |
| 1778107233 | 27.22° C | 35% | 1016.1 hPa | 0 mm | - | - | - |
| 1778106333 | 27.78° C | 34% | 1016.2 hPa | 0 mm | - | - | - |
| 1778105433 | 28.33° C | 35% | 1016.2 hPa | 0 mm | - | - | - |
| 1778104533 | 29.44° C | 33% | 1016.2 hPa | 0 mm | - | - | - |
| 1778103632 | 28.89° C | 35% | 1016.4 hPa | 0 mm | - | - | - |
| 1778102733 | 28.89° C | 32% | 1016.5 hPa | 0 mm | - | - | - |
| 1778101833 | 28.89° C | 33% | 1016.8 hPa | 0 mm | - | - | - |
| 1778100933 | 28.33° C | 36% | 1017.2 hPa | 0 mm | - | - | - |
| 1778100033 | 28.89° C | 34% | 1017.3 hPa | 0 mm | - | - | - |
| 1778099133 | 28.33° C | 35% | 1017.3 hPa | 0 mm | - | - | - |
| 1778098233 | 28.33° C | 35% | 1017.3 hPa | 0 mm | - | - | - |
| 1778097333 | 27.78° C | 37% | 1017.4 hPa | 0 mm | - | - | - |
| 1778096434 | 27.78° C | 38% | 1017.5 hPa | 0 mm | - | - | - |
| 1778095533 | 27.22° C | 38% | 1017.2 hPa | 0 mm | - | - | - |
| 1778094633 | 26.67° C | 37% | 1017.7 hPa | 0 mm | - | - | - |
| 1778093733 | 26.67° C | 39% | 1017.6 hPa | 0 mm | - | - | - |
| 1778092832 | 26.11° C | 41% | 1017.7 hPa | 0 mm | - | - | - |
| 1778091933 | 25° C | 42% | 1018 hPa | 0 mm | - | - | - |
| 1778091033 | 24.44° C | 45% | 1018 hPa | 0 mm | - | - | - |
| 1778090133 | 24.44° C | 45% | 1018.4 hPa | 0 mm | - | - | - |
| 1778088332 | 23.33° C | 49% | 1019.1 hPa | 0 mm | - | - | - |
| 1778087432 | 22.78° C | 48% | 1019.2 hPa | 0 mm | - | - | - |
| 1778086533 | 22.22° C | 48% | 1019.2 hPa | 0 mm | - | - | - |
* Rain latest hour (hover to see other rain measurements)
** Current wind speed in m/s (hover to see current wind gust speed)